Time;durP1;ratioP1;P1;durP2;ratioP2;P2;SDS_P1;SDS_P2;PMS_P1;PMS_P2;Temp;Humidity;BMP_temperature;BMP_pressure;BME280_temperature;BME280_humidity;BME280_pressure;Samples;Min_cycle;Max_cycle;Signal;HPM_P1;HPM_P2
2021/11/19 00:02:23;;;;;;;14.25;7.18;;;;;;;6.04;100.00;100131.84;5097448;28;20047;-80
2021/11/19 00:05:08;;;;;;;15.15;7.80;;;;;;;6.00;100.00;100127.53;5082013;28;20051;-80
2021/11/19 00:07:52;;;;;;;15.60;7.78;;;;;;;5.95;100.00;100121.50;5097507;28;20039;-80
2021/11/19 00:10:37;;;;;;;13.15;8.10;;;;;;;5.83;100.00;100129.25;5096775;28;20036;-80
2021/11/19 00:13:22;;;;;;;15.68;8.85;;;;;;;5.88;100.00;100135.31;5096664;28;20048;-79
2021/11/19 00:16:07;;;;;;;19.77;8.23;;;;;;;5.90;100.00;100123.19;5097265;28;20040;-79
2021/11/19 00:18:53;;;;;;;17.08;8.27;;;;;;;5.89;100.00;100121.47;5097309;28;20432;-81
2021/11/19 00:21:39;;;;;;;15.35;8.45;;;;;;;5.82;100.00;100120.59;5097316;28;20039;-81
2021/11/19 00:24:24;;;;;;;19.50;8.80;;;;;;;5.86;100.00;100124.91;5096288;28;20036;-80
2021/11/19 00:27:11;;;;;;;16.92;7.97;;;;;;;5.95;100.00;100124.09;5097110;28;20040;-80
2021/11/19 00:29:56;;;;;;;14.95;8.15;;;;;;;5.90;100.00;100128.38;5096369;28;20040;-81
2021/11/19 00:32:41;;;;;;;12.70;7.20;;;;;;;5.84;100.00;100134.44;5082322;28;20452;-80
2021/11/19 00:35:26;;;;;;;11.25;6.43;;;;;;;5.91;100.00;100126.63;5096224;28;20110;-81
2021/11/19 00:38:13;;;;;;;13.32;6.53;;;;;;;5.84;100.00;100125.78;5096179;28;20043;-80
2021/11/19 00:41:03;;;;;;;12.52;6.57;;;;;;;5.86;100.00;100122.31;5096193;28;20040;-80
2021/11/19 00:43:47;;;;;;;10.80;6.57;;;;;;;5.77;100.00;100134.47;5096700;28;20424;-79
2021/11/19 00:46:33;;;;;;;10.70;6.60;;;;;;;5.82;100.00;100125.81;5096788;28;20044;-80
2021/11/19 00:49:21;;;;;;;12.00;7.38;;;;;;;5.83;100.00;100127.53;5096006;28;20036;-79
2021/11/19 00:52:07;;;;;;;12.13;6.25;;;;;;;5.77;100.00;100131.84;5095876;28;20055;-80
2021/11/19 00:54:51;;;;;;;12.05;6.20;;;;;;;5.74;100.00;100124.06;5095932;28;20036;-80
2021/11/19 00:57:35;;;;;;;12.27;7.28;;;;;;;5.69;100.00;100105.88;5096532;28;20040;-82
2021/11/19 01:00:29;;;;;;;8.80;6.32;;;;;;;5.75;100.00;100118.88;5095627;28;20440;-81
2021/11/19 01:03:14;;;;;;;9.50;6.25;;;;;;;5.72;100.00;100110.19;5095668;28;20051;-81
2021/11/19 01:06:00;;;;;;;10.38;6.88;;;;;;;5.70;100.00;100101.53;5096556;28;20093;-80
2021/11/19 01:09:12;;;;;;;8.93;5.90;;;;;;;5.78;100.00;100095.44;5077991;28;20052;-80
2021/11/19 01:11:59;;;;;;;9.27;5.60;;;;;;;5.75;100.00;100090.28;5096391;28;20036;-80
2021/11/19 01:15:04;;;;;;;10.45;5.93;;;;;;;5.70;100.00;100091.16;5081431;28;20055;-80
2021/11/19 01:18:12;;;;;;;12.57;8.50;;;;;;;5.68;100.00;100091.13;5095331;28;20463;-80
2021/11/19 01:21:13;;;;;;;13.10;6.93;;;;;;;5.71;100.00;100093.72;5081342;28;20048;-80
2021/11/19 01:24:00;;;;;;;9.60;6.47;;;;;;;5.70;100.00;100086.81;5096129;28;20040;-80
2021/11/19 01:26:46;;;;;;;8.10;5.57;;;;;;;5.70;100.00;100091.16;5081382;28;20094;-81
2021/11/19 01:29:31;;;;;;;11.00;6.72;;;;;;;5.66;100.00;100082.50;5095401;28;20351;-80
2021/11/19 01:32:24;;;;;;;11.20;5.90;;;;;;;5.68;100.00;100075.53;5095231;28;20067;-81
2021/11/19 01:35:28;;;;;;;12.60;6.95;;;;;;;5.72;100.00;100081.59;5095969;28;20040;-80
2021/11/19 01:38:40;;;;;;;10.75;5.75;;;;;;;5.72;100.00;100076.41;5095254;28;20039;-79
2021/11/19 01:42:10;;;;;;;8.80;5.43;;;;;;;5.73;100.00;100073.81;5095244;28;20051;-79
2021/11/19 01:45:01;;;;;;;7.82;6.10;;;;;;;5.79;100.00;100084.22;5095312;28;20044;-81
2021/11/19 01:47:51;;;;;;;9.63;5.75;;;;;;;5.75;100.00;100073.78;5095401;28;20047;-80
2021/11/19 01:50:55;;;;;;;8.50;6.20;;;;;;;5.81;100.00;100072.06;5095087;28;20047;-80
2021/11/19 01:53:55;;;;;;;9.05;5.45;;;;;;;5.82;100.00;100072.94;5095903;28;20048;-79
2021/11/19 01:56:58;;;;;;;9.20;5.65;;;;;;;5.77;100.00;100075.53;5095865;28;20048;-78
2021/11/19 01:59:56;;;;;;;6.15;5.05;;;;;;;5.84;100.00;100071.19;5095028;28;20060;-79
2021/11/19 02:02:44;;;;;;;6.45;5.07;;;;;;;5.86;100.00;100072.94;5080861;28;20044;-80
2021/11/19 02:05:36;;;;;;;6.50;4.55;;;;;;;5.83;100.00;100074.66;5095085;28;20048;-79
2021/11/19 02:08:23;;;;;;;9.13;4.85;;;;;;;5.82;100.00;100073.81;5095023;28;20078;-80
2021/11/19 02:11:31;;;;;;;9.45;4.55;;;;;;;5.89;100.00;100069.47;5094982;28;20051;-79
2021/11/19 02:14:26;;;;;;;7.63;5.00;;;;;;;5.86;100.00;100067.72;5094956;28;20055;-79
2021/11/19 02:17:14;;;;;;;5.30;4.45;;;;;;;5.92;100.00;100077.25;5095667;28;20040;-79
2021/11/19 02:20:04;;;;;;;6.97;4.10;;;;;;;5.89;100.00;100073.81;5095015;28;20055;-79
2021/11/19 02:23:00;;;;;;;6.53;5.03;;;;;;;5.84;100.00;100053.84;5094880;28;20043;-78
2021/11/19 02:25:50;;;;;;;7.03;4.15;;;;;;;5.95;100.00;100069.50;5094797;28;20047;-79
2021/11/19 02:28:40;;;;;;;8.20;4.68;;;;;;;5.96;100.00;100065.16;5098743;28;20050;-79
2021/11/19 02:31:29;;;;;;;5.18;4.18;;;;;;;5.97;100.00;100059.06;5099373;28;20040;-78
2021/11/19 02:34:15;;;;;;;6.93;4.13;;;;;;;6.00;100.00;100057.31;5098605;28;20044;-79
2021/11/19 02:37:09;;;;;;;5.88;3.95;;;;;;;5.98;100.00;100055.59;5084427;28;20197;-79
2021/11/19 02:40:05;;;;;;;7.07;3.97;;;;;;;6.08;100.00;100058.19;5098408;28;20055;-79
2021/11/19 02:42:55;;;;;;;;;;;;;;;6.10;100.00;100055.56;5098608;28;20438;-79
2021/11/19 02:45:46;;;;;;;3.13;2.78;;;;;;;6.03;100.00;100046.91;5098426;28;19920;-78
2021/11/19 02:48:33;;;;;;;4.22;3.17;;;;;;;6.07;100.00;100047.78;5084027;28;20497;-78
2021/11/19 02:51:22;;;;;;;3.88;3.40;;;;;;;6.10;100.00;100047.75;5084247;28;20044;-79
2021/11/19 02:54:10;;;;;;;3.47;3.10;;;;;;;6.17;100.00;100040.81;5083876;28;20048;-81
2021/11/19 02:56:56;;;;;;;4.18;2.50;;;;;;;6.17;100.00;100048.59;5083938;28;20064;-79
2021/11/19 02:59:41;;;;;;;3.20;2.78;;;;;;;6.16;100.00;100039.09;5083621;28;20117;-79
2021/11/19 03:02:31;;;;;;;4.82;2.75;;;;;;;6.21;100.00;100051.22;5083649;28;20078;-79
2021/11/19 03:05:23;;;;;;;4.05;2.50;;;;;;;6.23;100.00;100044.25;5097940;28;20040;-79
2021/11/19 03:08:08;;;;;;;2.92;2.17;;;;;;;6.28;100.00;100045.09;5083698;28;20044;-80
2021/11/19 03:10:55;;;;;;;2.33;2.13;;;;;;;6.25;100.00;100049.47;5097892;28;20125;-80
2021/11/19 03:13:41;;;;;;;2.17;1.80;;;;;;;6.31;100.00;100044.25;5083741;28;20428;-81
2021/11/19 03:16:27;;;;;;;2.33;1.90;;;;;;;6.33;100.00;100045.06;5097794;28;20036;-81
2021/11/19 03:19:13;;;;;;;1.73;1.60;;;;;;;6.28;100.00;100046.84;5097811;28;20043;-81
2021/11/19 03:21:58;;;;;;;2.47;2.05;;;;;;;6.32;100.00;100058.97;5097649;28;20048;-80
2021/11/19 03:24:43;;;;;;;2.35;1.70;;;;;;;6.35;100.00;100052.88;5098401;28;20421;-80
2021/11/19 03:27:29;;;;;;;1.52;1.40;;;;;;;6.39;100.00;100052.00;5097494;28;20040;-80
2021/11/19 03:30:35;;;;;;;4.60;1.45;;;;;;;6.42;100.00;100042.44;5097803;28;20036;-81
2021/11/19 03:33:23;;;;;;;2.65;2.45;;;;;;;6.40;100.00;100035.50;5097430;28;20052;-82
2021/11/19 03:36:12;;;;;;;3.28;2.60;;;;;;;6.43;100.00;100041.56;5097375;28;20036;-80
2021/11/19 03:38:59;;;;;;;6.82;2.95;;;;;;;6.49;100.00;100040.66;5096462;28;20040;-80
2021/11/19 03:41:46;;;;;;;2.95;2.50;;;;;;;6.53;100.00;100037.19;5083141;28;20044;-82
2021/11/19 03:44:37;;;;;;;2.67;1.85;;;;;;;6.51;100.00;100041.53;5097126;28;20044;-81
2021/11/19 03:47:29;;;;;;;4.07;2.40;;;;;;;6.51;100.00;100037.19;5097079;28;20044;-80
2021/11/19 03:50:20;;;;;;;3.35;1.92;;;;;;;6.55;100.00;100022.44;5097115;28;20047;-80
2021/11/19 03:53:04;;;;;;;2.33;1.50;;;;;;;6.48;100.00;100021.59;5082923;28;20043;-79
2021/11/19 03:55:50;;;;;;;1.95;1.38;;;;;;;6.54;100.00;100025.91;5097026;28;20044;-80
2021/11/19 03:58:39;;;;;;;2.30;2.08;;;;;;;6.50;100.00;100022.47;5082715;28;20060;-78
2021/11/19 04:01:28;;;;;;;2.13;1.92;;;;;;;6.52;100.00;100023.31;5082674;28;20044;-81
2021/11/19 04:04:19;;;;;;;15.60;11.85;;;;;;;6.55;100.00;100025.88;5096751;28;20032;-80
2021/11/19 04:07:06;;;;;;;4.15;3.47;;;;;;;6.55;100.00;100022.44;5096807;28;20040;-79
2021/11/19 04:09:52;;;;;;;8.00;7.22;;;;;;;6.52;100.00;100014.63;5082801;28;20058;-78
2021/11/19 04:12:37;;;;;;;10.85;9.30;;;;;;;6.51;100.00;100016.38;5096741;28;20044;-80
2021/11/19 04:15:29;;;;;;;8.35;4.03;;;;;;;6.55;100.00;100018.09;5097324;28;20036;-78
2021/11/19 04:18:16;;;;;;;4.28;3.38;;;;;;;6.53;100.00;100006.84;5097265;28;20040;-81
2021/11/19 04:21:02;;;;;;;2.35;2.15;;;;;;;6.59;100.00;100015.47;5096494;28;20040;-79
2021/11/19 04:23:49;;;;;;;3.03;2.63;;;;;;;6.61;100.00;100017.19;5096384;28;20123;-82
2021/11/19 04:26:35;;;;;;;3.22;2.53;;;;;;;6.68;100.00;100020.63;5082247;28;20040;-81
2021/11/19 04:29:20;;;;;;;4.18;2.40;;;;;;;6.62;100.00;100018.91;5096325;28;20119;-78
2021/11/19 04:32:16;;;;;;;2.58;1.75;;;;;;;6.61;100.00;100022.41;5096974;28;20051;-82
2021/11/19 04:35:01;;;;;;;5.50;3.97;;;;;;;6.69;100.00;100031.00;5097006;28;20051;-78
2021/11/19 04:37:47;;;;;;;4.82;3.13;;;;;;;6.65;100.00;100025.84;5096190;28;20040;-80
2021/11/19 04:40:35;;;;;;;2.60;2.22;;;;;;;6.70;100.00;100029.31;5082149;28;20118;-80
2021/11/19 04:43:22;;;;;;;4.43;4.03;;;;;;;6.71;100.00;100034.47;5096044;28;20093;-78
2021/11/19 04:46:09;;;;;;;5.35;4.35;;;;;;;6.76;100.00;100034.47;5081669;28;20060;-79
2021/11/19 04:48:54;;;;;;;4.32;3.20;;;;;;;6.75;100.00;100032.72;5081906;28;20055;-79
2021/11/19 04:51:41;;;;;;;4.53;3.10;;;;;;;6.74;100.00;100031.00;5096654;28;20415;-79
2021/11/19 04:54:26;;;;;;;3.67;3.00;;;;;;;6.78;100.00;100030.97;5095874;28;20047;-79
2021/11/19 04:57:11;;;;;;;4.15;2.00;;;;;;;6.88;100.00;100029.16;5081647;28;20038;-81
2021/11/19 04:59:56;;;;;;;3.38;2.38;;;;;;;6.86;100.00;100035.25;5081526;28;20349;-80
2021/11/19 05:02:41;;;;;;;2.80;2.03;;;;;;;6.94;100.00;100033.47;5081542;28;20047;-79
2021/11/19 05:05:42;;;;;;;3.13;2.33;;;;;;;6.92;100.00;100030.00;5096428;28;20363;-78
2021/11/19 05:08:26;;;;;;;2.97;2.67;;;;;;;6.98;100.00;100024.75;5095633;28;20044;-80
2021/11/19 05:11:16;;;;;;;4.53;2.45;;;;;;;6.97;100.00;100030.84;5095675;28;20062;-80
2021/11/19 05:14:02;;;;;;;3.00;2.47;;;;;;;7.05;100.00;100025.59;5096422;28;20051;-79
2021/11/19 05:16:47;;;;;;;4.93;3.03;;;;;;;7.04;100.00;100035.13;5095620;28;20322;-80
2021/11/19 05:19:32;;;;;;;13.98;10.27;;;;;;;7.02;100.00;100044.72;5096471;28;20348;-81
2021/11/19 05:22:18;;;;;;;63.33;31.58;;;;;;;7.06;100.00;100035.16;5095475;28;20047;-79
2021/11/19 05:25:05;;;;;;;74.20;37.78;;;;;;;7.06;100.00;100038.63;5095496;28;20135;-79
2021/11/19 05:27:50;;;;;;;91.65;42.45;;;;;;;7.02;100.00;100035.16;5081200;28;20051;-79
2021/11/19 05:30:35;;;;;;;181.77;87.75;;;;;;;7.11;100.00;100036.81;5095386;28;20040;-82
2021/11/19 05:33:25;;;;;;;101.07;51.70;;;;;;;7.09;100.00;100046.41;5095365;28;20097;-80
2021/11/19 05:36:11;;;;;;;24.77;17.77;;;;;;;7.18;100.00;100048.94;5095407;28;20115;-81
2021/11/19 05:38:57;;;;;;;26.10;20.63;;;;;;;7.17;100.00;100041.13;5095408;28;20047;-80
2021/11/19 05:41:43;;;;;;;14.32;12.30;;;;;;;7.17;100.00;100031.56;5081474;28;20048;-79
2021/11/19 05:44:29;;;;;;;9.07;6.82;;;;;;;7.25;100.00;100057.59;5095196;28;20066;-80
2021/11/19 05:47:13;;;;;;;7.15;6.45;;;;;;;7.22;100.00;100045.44;5095832;28;20416;-78
2021/11/19 05:50:05;;;;;;;10.48;8.48;;;;;;;7.19;100.00;100049.81;5095356;28;20039;-80
2021/11/19 05:52:52;;;;;;;6.88;5.80;;;;;;;7.24;100.00;100061.03;5095095;28;20052;-79
2021/11/19 05:55:40;;;;;;;8.35;6.35;;;;;;;7.31;100.00;100057.50;5095387;28;20051;-81
2021/11/19 05:58:25;;;;;;;8.05;6.75;;;;;;;7.21;100.00;100050.63;5094863;28;20040;-80
2021/11/19 06:01:14;;;;;;;9.10;6.85;;;;;;;7.24;100.00;100069.72;5095071;28;20036;-78
2021/11/19 06:04:09;;;;;;;7.03;6.40;;;;;;;7.37;100.00;100054.00;5099002;28;20036;-81
2021/11/19 06:07:16;;;;;;;7.93;6.82;;;;;;;7.26;100.00;100060.16;5099286;28;20036;-79
2021/11/19 06:10:09;;;;;;;9.13;6.82;;;;;;;7.24;100.00;100051.47;5098209;28;20043;-79
2021/11/19 06:12:58;;;;;;;11.30;8.70;;;;;;;7.29;100.00;100059.28;5097690;28;20097;-82
2021/11/19 06:15:50;;;;;;;15.10;12.27;;;;;;;7.25;100.00;100057.59;5097877;28;20044;-80
2021/11/19 06:18:39;;;;;;;14.05;9.55;;;;;;;7.30;100.00;100061.00;5096985;28;20036;-82
2021/11/19 06:21:29;;;;;;;8.82;7.28;;;;;;;7.32;100.00;100056.66;5098021;28;20039;-75
2021/11/19 06:24:19;;;;;;;10.43;8.93;;;;;;;7.35;100.00;100061.84;5097582;28;20047;-75
2021/11/19 06:27:05;;;;;;;8.70;7.00;;;;;;;7.25;100.00;100063.66;5097608;28;20044;-75
2021/11/19 06:29:56;;;;;;;10.68;7.60;;;;;;;7.40;100.00;100059.19;5082716;28;20040;-75
2021/11/19 06:32:41;;;;;;;9.60;7.43;;;;;;;7.29;100.00;100056.69;5096789;28;20052;-75
2021/11/19 06:35:29;;;;;;;10.07;7.88;;;;;;;7.32;100.00;100067.06;5082794;28;20040;-76
2021/11/19 06:38:16;;;;;;;10.77;7.55;;;;;;;7.37;100.00;100060.06;5096927;28;20048;-76
2021/11/19 06:41:05;;;;;;;9.85;7.88;;;;;;;7.39;100.00;100058.31;5082905;28;20040;-77
2021/11/19 06:44:09;;;;;;;;;;;;;;;7.42;100.00;100071.34;5096816;28;20119;-77
2021/11/19 06:47:15;;;;;;;12.20;8.32;;;;;;;7.41;100.00;100079.16;5096803;28;20320;-76
2021/11/19 06:50:25;;;;;;;11.45;8.98;;;;;;;7.42;100.00;100073.94;5088606;28;20427;-74
2021/11/19 06:53:35;;;;;;;15.38;8.23;;;;;;;7.43;100.00;100070.44;5086651;28;20085;-75
2021/11/19 06:56:50;;;;;;;12.55;8.77;;;;;;;7.45;100.00;100073.06;5083016;28;20056;-76
2021/11/19 06:59:44;;;;;;;14.95;9.32;;;;;;;7.53;100.00;100084.25;5097919;28;20086;-77
2021/11/19 07:02:29;;;;;;;13.13;9.20;;;;;;;7.54;100.00;100075.59;5098366;28;20036;-75
2021/11/19 07:05:14;;;;;;;10.93;9.55;;;;;;;7.40;100.00;100073.06;5084341;28;20036;-76
2021/11/19 07:08:02;;;;;;;14.02;9.80;;;;;;;7.57;100.00;100074.69;5083912;28;20115;-76
2021/11/19 07:10:51;;;;;;;16.80;10.82;;;;;;;7.55;100.00;100086.88;5097058;28;20048;-76
2021/11/19 07:13:36;;;;;;;13.75;9.43;;;;;;;7.57;100.00;100091.22;5081361;28;20403;-76
2021/11/19 07:16:24;;;;;;;14.93;9.68;;;;;;;7.62;100.00;100081.59;5097865;28;20036;-77
2021/11/19 07:19:10;;;;;;;14.23;9.68;;;;;;;7.69;100.00;100083.25;5098007;28;20048;-76
2021/11/19 07:21:56;;;;;;;12.07;9.18;;;;;;;7.69;100.00;100085.88;5098768;28;20044;-77
2021/11/19 07:24:41;;;;;;;14.52;9.55;;;;;;;7.68;100.00;100085.91;5097664;28;20055;-76
2021/11/19 07:27:29;;;;;;;13.30;9.18;;;;;;;7.71;100.00;100091.94;5098223;28;20054;-76
2021/11/19 07:30:19;;;;;;;17.92;12.05;;;;;;;7.71;100.00;100096.28;5096835;28;20044;-76
2021/11/19 07:33:25;;;;;;;17.02;10.52;;;;;;;7.74;100.00;100101.47;5096370;28;20044;-76
2021/11/19 07:36:39;;;;;;;17.75;11.20;;;;;;;7.79;100.00;100097.06;5092409;28;20056;-74
2021/11/19 07:39:32;;;;;;;14.48;9.75;;;;;;;7.78;100.00;100091.88;5095333;28;20051;-75
2021/11/19 07:42:40;;;;;;;15.98;10.77;;;;;;;7.80;100.00;100101.44;5095998;28;20043;-77
2021/11/19 07:45:39;;;;;;;18.02;10.73;;;;;;;7.85;100.00;100099.63;5095267;28;20487;-77
2021/11/19 07:48:41;;;;;;;17.98;11.55;;;;;;;7.85;100.00;100096.16;5095279;28;20040;-76
2021/11/19 07:51:29;;;;;;;16.52;11.07;;;;;;;7.91;100.00;100101.31;5095322;28;20040;-77
2021/11/19 07:54:15;;;;;;;16.50;11.15;;;;;;;7.86;100.00;100085.69;5082170;28;20048;-77
2021/11/19 07:56:59;;;;;;;15.35;11.13;;;;;;;7.95;100.00;100097.81;5096186;28;20040;-77
2021/11/19 07:59:43;;;;;;;15.60;10.57;;;;;;;8.00;100.00;100097.78;5094817;28;20048;-76
2021/11/19 08:02:28;;;;;;;17.95;10.15;;;;;;;7.96;100.00;100097.81;5094816;28;20047;-76
2021/11/19 08:05:14;;;;;;;17.05;10.48;;;;;;;8.00;100.00;100100.38;5094817;28;20050;-75
2021/11/19 08:08:16;;;;;;;13.52;9.88;;;;;;;8.01;100.00;100108.19;5094938;28;20040;-76
2021/11/19 08:11:16;;;;;;;16.15;9.70;;;;;;;8.08;100.00;100101.16;5095444;28;20390;-77
2021/11/19 08:14:03;;;;;;;14.23;8.50;;;;;;;8.08;100.00;100109.84;5097309;28;20044;-77
2021/11/19 08:17:01;;;;;;;16.42;8.35;;;;;;;8.04;100.00;100099.47;5096658;28;20044;-77
2021/11/19 08:19:55;;;;;;;14.77;9.00;;;;;;;8.08;100.00;100111.59;5097323;28;20055;-77
2021/11/19 08:22:40;;;;;;;17.35;11.93;;;;;;;8.07;100.00;100118.56;5097482;28;20119;-76
2021/11/19 08:25:25;;;;;;;18.83;11.85;;;;;;;8.19;100.00;100109.75;5096631;28;20052;-77
2021/11/19 08:28:10;;;;;;;20.58;14.98;;;;;;;8.15;100.00;100124.53;5082730;28;20119;-77
2021/11/19 08:30:55;;;;;;;54.72;32.05;;;;;;;8.18;100.00;100123.66;5097745;28;20044;-77
2021/11/19 08:33:40;;;;;;;42.92;23.65;;;;;;;8.12;100.00;100119.34;5096410;28;20048;-77
2021/11/19 08:36:28;;;;;;;29.23;18.55;;;;;;;8.22;100.00;100125.34;5097334;28;20036;-77
2021/11/19 08:39:16;;;;;;;26.58;18.98;;;;;;;8.23;100.00;100121.88;5096553;28;20048;-77
2021/11/19 08:42:01;;;;;;;13.88;10.50;;;;;;;8.17;100.00;100133.22;5096745;28;20036;-77
2021/11/19 08:44:46;;;;;;;11.93;8.90;;;;;;;8.22;100.00;100141.00;5096273;28;20035;-76
2021/11/19 08:47:31;;;;;;;12.27;7.75;;;;;;;8.25;100.00;100140.97;5097411;28;20047;-77
2021/11/19 08:50:18;;;;;;;16.25;11.18;;;;;;;8.26;100.00;100139.25;5097343;28;20039;-77
2021/11/19 08:53:03;;;;;;;16.15;9.75;;;;;;;8.30;100.00;100135.72;5096810;28;20048;-77
2021/11/19 08:55:51;;;;;;;50.00;33.22;;;;;;;8.24;100.00;100122.72;5096954;28;20055;-76
2021/11/19 08:58:41;;;;;;;18.02;9.88;;;;;;;8.30;100.00;100136.59;5095670;28;20060;-77
2021/11/19 09:01:25;;;;;;;16.55;8.70;;;;;;;8.31;100.00;100133.09;5096539;28;20047;-77
2021/11/19 09:04:10;;;;;;;40.25;26.35;;;;;;;8.33;100.00;100140.91;5081952;28;20044;-77
2021/11/19 09:06:57;;;;;;;25.40;13.60;;;;;;;8.43;100.00;100150.41;5096344;28;20047;-76
2021/11/19 09:09:43;;;;;;;18.55;9.43;;;;;;;8.47;100.00;100154.69;5096401;28;20055;-77
2021/11/19 09:12:27;;;;;;;17.63;9.48;;;;;;;8.45;100.00;100148.66;5096392;28;20036;-77
2021/11/19 09:15:15;;;;;;;16.10;8.38;;;;;;;8.50;100.00;100135.53;5096383;28;20036;-75
2021/11/19 09:18:02;;;;;;;29.80;20.52;;;;;;;8.48;100.00;100139.91;5096296;28;20040;-77
2021/11/19 09:20:46;;;;;;;24.13;11.60;;;;;;;8.52;100.00;100128.56;5096794;28;20040;-77
2021/11/19 09:23:34;;;;;;;11.65;7.47;;;;;;;8.55;100.00;100146.81;5095597;28;20048;-77
2021/11/19 09:26:30;;;;;;;14.23;8.85;;;;;;;8.56;100.00;100146.78;5095544;28;20058;-77
2021/11/19 09:29:18;;;;;;;10.30;7.05;;;;;;;8.68;100.00;100153.59;5095483;28;20378;-77
2021/11/19 09:32:06;;;;;;;12.15;7.93;;;;;;;8.65;100.00;100145.81;5095845;28;20048;-77
2021/11/19 09:34:55;;;;;;;10.63;7.20;;;;;;;8.60;100.00;100148.47;5096080;28;20115;-77
2021/11/19 09:37:41;;;;;;;9.10;6.53;;;;;;;8.62;100.00;100145.84;5094788;28;20047;-77
2021/11/19 09:40:45;;;;;;;27.42;13.48;;;;;;;8.61;100.00;100149.31;5080826;28;20054;-77
2021/11/19 09:43:48;;;;;;;19.20;9.57;;;;;;;8.62;100.00;100148.47;5095205;28;20036;-77
2021/11/19 09:47:10;;;;;;;10.50;6.40;;;;;;;8.70;100.00;100135.28;5095688;28;20044;-77
2021/11/19 09:50:26;;;;;;;10.07;6.38;;;;;;;8.74;100.00;100136.97;5094048;28;20048;-77
2021/11/19 09:53:39;;;;;;;14.70;8.45;;;;;;;8.81;100.00;100141.28;5095349;28;20440;-77
2021/11/19 09:56:41;;;;;;;8.80;5.22;;;;;;;8.75;100.00;100126.53;5094085;28;20040;-77
2021/11/19 09:59:50;;;;;;;8.95;6.22;;;;;;;8.83;100.00;100135.13;5093816;28;20067;-77
2021/11/19 10:03:02;;;;;;;16.30;11.30;;;;;;;8.82;100.00;100141.22;5093993;28;20039;-77
2021/11/19 10:05:52;;;;;;;11.05;6.45;;;;;;;8.77;100.00;100139.56;5078302;28;20129;-77
2021/11/19 10:08:46;;;;;;;12.02;6.57;;;;;;;8.79;100.00;100135.19;5093856;28;20051;-77
2021/11/19 10:11:43;;;;;;;23.00;12.60;;;;;;;8.73;100.00;100117.84;5093084;28;20044;-78
2021/11/19 10:14:42;;;;;;;28.15;15.90;;;;;;;8.78;100.00;100138.69;5093810;28;20055;-77
2021/11/19 10:17:38;;;;;;;28.58;16.70;;;;;;;8.71;100.00;100130.06;5078964;28;20378;-77
2021/11/19 10:20:41;;;;;;;23.80;21.35;;;;;;;8.82;100.00;100133.41;5080480;28;20109;-77
2021/11/19 10:23:31;;;;;;;14.45;9.60;;;;;;;8.82;100.00;100124.69;5080885;28;20117;-77
2021/11/19 10:26:20;;;;;;;12.90;8.43;;;;;;;8.77;100.00;100126.50;5095088;28;20040;-77
2021/11/19 10:29:25;;;;;;;9.70;5.82;;;;;;;8.78;100.00;100121.28;5095730;28;20040;-77
2021/11/19 10:32:17;;;;;;;12.32;8.45;;;;;;;8.82;100.00;100112.50;5095983;28;20036;-77
2021/11/19 10:35:23;;;;;;;7.10;5.35;;;;;;;8.83;100.00;100114.22;5095252;28;20059;-77
2021/11/19 10:38:35;;;;;;;6.18;4.90;;;;;;;8.80;100.00;100118.63;5095652;28;20106;-77
2021/11/19 10:41:22;;;;;;;7.65;5.35;;;;;;;8.81;100.00;100105.56;5095595;28;20047;-77
2021/11/19 10:44:45;;;;;;;8.05;5.80;;;;;;;8.76;100.00;100103.88;5095034;28;20101;-77
2021/11/19 10:48:07;;;;;;;4.40;3.85;;;;;;;8.80;100.00;100102.94;5084383;28;20060;-77
2021/11/19 10:51:05;;;;;;;7.90;5.28;;;;;;;8.87;100.00;100101.97;5099189;28;20322;-76
2021/11/19 10:54:27;;;;;;;8.00;5.63;;;;;;;8.86;100.00;100088.06;5098653;28;20051;-76
2021/11/19 10:57:49;;;;;;;8.18;5.15;;;;;;;8.89;100.00;100090.63;5099316;28;20047;-75
2021/11/19 11:00:59;;;;;;;10.77;6.22;;;;;;;8.88;100.00;100096.75;5098076;28;20052;-76
2021/11/19 11:03:52;;;;;;;8.82;6.18;;;;;;;8.89;100.00;100095.00;5098727;28;20048;-76
2021/11/19 11:06:46;;;;;;;16.67;11.77;;;;;;;8.89;100.00;100085.41;5098752;28;20348;-76
2021/11/19 11:09:39;;;;;;;;;;;;;;;8.83;100.00;100103.78;5099714;28;20044;-77
2021/11/19 11:12:44;;;;;;;88.80;79.10;;;;;;;8.98;100.00;100096.63;5098997;28;19920;-76
2021/11/19 11:15:33;;;;;;;41.60;28.10;;;;;;;8.92;100.00;100089.72;5083371;28;20071;-76
2021/11/19 11:18:31;;;;;;;25.15;17.70;;;;;;;8.93;100.00;100086.22;5083636;28;20040;-76
2021/11/19 11:21:26;;;;;;;56.20;50.72;;;;;;;9.06;100.00;100077.31;5098033;28;20044;-77
2021/11/19 11:24:33;;;;;;;49.90;44.78;;;;;;;8.99;100.00;100078.31;5098587;28;20161;-76
2021/11/19 11:27:42;;;;;;;31.42;28.40;;;;;;;8.94;100.00;100090.59;5097664;28;20047;-76
2021/11/19 11:30:58;;;;;;;275.88;112.47;;;;;;;8.99;100.00;100086.16;5097670;28;20032;-76
2021/11/19 11:34:11;;;;;;;28.67;21.23;;;;;;;9.03;100.00;100081.72;5098481;28;20048;-76
2021/11/19 11:36:55;;;;;;;44.00;35.50;;;;;;;8.98;100.00;100096.63;5097705;28;20041;-77
2021/11/19 11:39:48;;;;;;;20.48;13.43;;;;;;;9.05;100.00;100101.72;5083283;28;20048;-77
2021/11/19 11:42:39;;;;;;;22.38;15.75;;;;;;;8.99;100.00;100100.97;5098678;28;20055;-77
2021/11/19 11:45:33;;;;;;;6.97;5.75;;;;;;;8.88;100.00;100096.75;5083398;28;20344;-77
2021/11/19 11:48:28;;;;;;;;;;;;;;;9.01;100.00;100099.19;5098535;28;20036;-77
2021/11/19 11:51:22;;;;;;;15.02;9.50;;;;;;;8.96;100.00;100098.38;5082836;28;19931;-77
2021/11/19 11:54:32;;;;;;;6.40;5.40;;;;;;;8.92;100.00;100108.03;5097792;28;20097;-77
2021/11/19 11:57:28;;;;;;;116.72;53.38;;;;;;;8.96;100.00;100108.84;5096985;28;20047;-77
2021/11/19 12:00:37;;;;;;;29.95;16.27;;;;;;;8.94;100.00;100108.88;5081892;28;20573;-76
2021/11/19 12:04:09;;;;;;;8.70;6.75;;;;;;;8.96;100.00;100108.84;5097588;28;20382;-77
2021/11/19 12:06:55;;;;;;;13.23;6.97;;;;;;;8.92;100.00;100100.19;5027830;28;20083;-77
2021/11/19 12:09:47;;;;;;;20.30;10.35;;;;;;;8.97;100.00;100102.72;5042150;28;20049;-77
2021/11/19 12:12:41;;;;;;;6.90;4.00;;;;;;;9.04;100.00;100099.16;5094065;28;20131;-78
2021/11/19 12:16:00;;;;;;;10.23;5.00;;;;;;;8.90;100.00;100107.16;5097547;28;20036;-77
2021/11/19 12:18:52;;;;;;;5.53;4.35;;;;;;;8.91;100.00;100103.69;5097153;28;20040;-75
2021/11/19 12:22:04;;;;;;;8.20;5.85;;;;;;;8.86;100.00;100090.66;5096764;28;20097;-75
2021/11/19 12:24:49;;;;;;;5.32;4.63;;;;;;;8.87;100.00;100101.97;5097301;28;20040;-75
2021/11/19 12:27:58;;;;;;;4.78;3.65;;;;;;;8.96;100.00;100103.63;5097163;28;20051;-74
2021/11/19 12:30:55;;;;;;;4.88;3.92;;;;;;;9.03;100.00;100105.25;5096399;28;20071;-75
2021/11/19 12:33:44;;;;;;;3.55;3.10;;;;;;;8.95;100.00;100096.66;5096538;28;20048;-75
2021/11/19 12:36:36;;;;;;;7.78;6.07;;;;;;;8.96;100.00;100107.09;5096778;28;20048;-77
2021/11/19 12:39:20;;;;;;;4.63;3.30;;;;;;;9.01;100.00;100100.06;5082007;28;20109;-75
2021/11/19 12:42:40;;;;;;;3.83;3.42;;;;;;;9.00;100.00;100097.44;5096177;28;20044;-77
2021/11/19 12:45:30;;;;;;;5.32;4.25;;;;;;;9.02;100.00;100104.38;5098552;28;20061;-76
2021/11/19 12:48:31;;;;;;;4.75;3.22;;;;;;;9.00;100.00;100095.72;5088312;28;20414;-75
2021/11/19 12:51:25;;;;;;;3.97;3.58;;;;;;;9.07;100.00;100097.38;5096016;28;20040;-77
2021/11/19 12:54:30;;;;;;;5.55;4.25;;;;;;;8.94;100.00;100101.03;5095568;28;20097;-77
2021/11/19 12:57:37;;;;;;;8.45;5.72;;;;;;;9.06;100.00;100090.38;5096638;28;20131;-77
2021/11/19 13:00:36;;;;;;;6.25;5.10;;;;;;;9.04;100.00;100091.31;5096229;28;20063;-77
2021/11/19 13:03:34;;;;;;;6.45;5.57;;;;;;;9.04;100.00;100084.34;5096475;28;20040;-77
2021/11/19 13:06:26;;;;;;;4.35;3.67;;;;;;;9.00;100.00;100085.28;5095312;28;20036;-77
2021/11/19 13:09:14;;;;;;;5.50;4.40;;;;;;;9.07;100.00;100093.91;5094703;28;20122;-77
2021/11/19 13:12:16;;;;;;;5.68;3.70;;;;;;;9.03;100.00;100100.03;5095081;28;20040;-77
2021/11/19 13:15:32;;;;;;;4.80;4.30;;;;;;;9.01;100.00;100088.75;5096147;28;20060;-77
2021/11/19 13:18:16;;;;;;;4.47;3.95;;;;;;;9.05;100.00;100096.50;5039742;28;20169;-75